Caxambu, Brazil
Current Conditions -  °F | °C
As of 8:00 PM on Thursday 23 Oct 2014 (Local Time) from SBGW Reporting Station
Few Clouds Few Clouds  
Wind Chill: 77°   Ceiling: Unl
Heat Index: 79°   Visibility: 6mi
Dew Point: 61°   Wind: 5mph
Humidity: 57%   Direction: 50°NE
Pressure: 30"   Gusts: NA
Location:  21.98°S, 44.93°W
Report Text: SBGW 232200Z 05004KT 9999 FEW030 25/16 Q1016
Loading
Personal Weather Stations






























Interactive Weather Map
Tropical Storm Tracking
New forecast layout! Learn more

10-Day Weather Forecast

Advertisements
Track Severe Weather on mobile